Time;durP1;ratioP1;P1;durP2;ratioP2;P2;SDS_P1;SDS_P2;PMS_P1;PMS_P2;Temp;Humidity;BMP_temperature;BMP_pressure;BME280_temperature;BME280_humidity;BME280_pressure;Samples;Min_cycle;Max_cycle;Signal;HPM_P1;HPM_P2
2022/04/04 00:02:21;;;;;;;6.63;1.73;;;4.20;99.90;;;;;;5042357;28;20488;-81
2022/04/04 00:04:47;;;;;;;3.42;2.00;;;4.20;99.90;;;;;;5047835;28;20025;-80
2022/04/04 00:07:13;;;;;;;3.42;1.73;;;4.10;99.90;;;;;;5055827;28;20032;-80
2022/04/04 00:09:38;;;;;;;4.95;1.80;;;4.10;99.90;;;;;;5045849;28;20492;-80
2022/04/04 00:12:05;;;;;;;7.78;3.33;;;4.10;99.90;;;;;;5070656;28;20142;-80
2022/04/04 00:14:31;;;;;;;4.05;1.88;;;4.20;99.90;;;;;;5059544;28;20040;-82
2022/04/04 00:17:00;;;;;;;5.35;2.17;;;4.20;99.90;;;;;;5032044;28;20040;-82
2022/04/04 00:19:26;;;;;;;3.28;1.75;;;4.20;99.90;;;;;;5070649;28;20025;-82
2022/04/04 00:21:52;;;;;;;8.20;2.17;;;4.20;99.90;;;;;;5041268;28;20038;-80
2022/04/04 00:24:18;;;;;;;5.85;2.13;;;4.20;99.90;;;;;;5044431;28;20103;-81
2022/04/04 00:26:44;;;;;;;6.55;2.00;;;4.30;99.90;;;;;;5074093;28;20601;-81
2022/04/04 00:29:10;;;;;;;4.57;1.98;;;4.20;99.90;;;;;;5041631;28;20090;-81
2022/04/04 00:31:36;;;;;;;5.38;2.10;;;4.10;99.90;;;;;;5040828;28;20032;-82
2022/04/04 00:34:01;;;;;;;7.63;2.47;;;4.10;99.90;;;;;;5042857;28;20039;-81
2022/04/04 00:36:27;;;;;;;5.88;1.65;;;4.10;99.90;;;;;;5043916;28;20050;-81
2022/04/04 00:38:53;;;;;;;7.50;1.95;;;4.20;99.90;;;;;;5047701;28;20025;-80
2022/04/04 00:41:18;;;;;;;7.13;2.25;;;4.20;99.90;;;;;;5057061;28;20028;-81
2022/04/04 00:43:49;;;;;;;6.95;2.25;;;4.20;99.90;;;;;;5041735;28;20115;-81
2022/04/04 00:46:15;;;;;;;3.22;1.90;;;4.20;99.90;;;;;;5039713;28;20036;-81
2022/04/04 00:48:41;;;;;;;6.70;2.10;;;4.20;99.90;;;;;;5058085;28;20024;-81
2022/04/04 00:51:06;;;;;;;4.95;2.13;;;4.10;99.90;;;;;;5074038;28;20123;-81
2022/04/04 00:53:32;;;;;;;7.10;2.35;;;4.10;99.90;;;;;;5057266;28;20036;-81
2022/04/04 00:55:59;;;;;;;5.88;2.10;;;4.10;99.90;;;;;;5074005;28;20037;-81
2022/04/04 00:58:30;;;;;;;6.43;2.22;;;4.10;99.90;;;;;;5057994;28;20034;-81
2022/04/04 01:00:58;;;;;;;4.68;2.30;;;4.20;99.90;;;;;;5072039;28;20046;-81
2022/04/04 01:03:23;;;;;;;8.25;2.38;;;4.10;99.90;;;;;;5041538;28;20043;-81
2022/04/04 01:05:49;;;;;;;8.57;2.70;;;4.10;99.90;;;;;;5058440;28;20020;-81
2022/04/04 01:08:16;;;;;;;6.22;2.67;;;4.10;99.90;;;;;;5058948;28;20055;-81
2022/04/04 01:10:43;;;;;;;7.38;2.42;;;4.10;99.90;;;;;;5054237;28;20101;-81
2022/04/04 01:13:11;;;;;;;8.50;2.20;;;3.90;99.90;;;;;;5073784;28;20373;-81
2022/04/04 01:15:37;;;;;;;4.35;2.10;;;4.00;99.90;;;;;;5039890;28;20122;-81
2022/04/04 01:18:04;;;;;;;6.32;2.47;;;4.00;99.90;;;;;;5032462;28;20059;-81
2022/04/04 01:20:30;;;;;;;4.78;2.22;;;4.10;99.90;;;;;;5041125;28;20508;-81
2022/04/04 01:22:57;;;;;;;3.72;1.95;;;4.00;99.90;;;;;;5041774;28;20025;-81
2022/04/04 01:25:24;;;;;;;5.85;2.55;;;4.00;99.90;;;;;;5077435;28;20039;-80
2022/04/04 01:27:50;;;;;;;8.30;3.00;;;4.10;99.90;;;;;;5063335;28;20043;-81
2022/04/04 01:30:16;;;;;;;4.57;2.28;;;4.00;99.90;;;;;;5073686;28;20032;-80
2022/04/04 01:32:42;;;;;;;4.60;2.35;;;3.90;99.90;;;;;;5060586;28;20447;-80
2022/04/04 01:35:09;;;;;;;5.13;2.85;;;3.90;99.90;;;;;;5077205;28;20028;-81
2022/04/04 01:37:35;;;;;;;5.25;2.80;;;3.90;99.90;;;;;;5048541;28;20036;-81
2022/04/04 01:40:01;;;;;;;5.47;3.20;;;3.90;99.90;;;;;;5091681;28;20032;-80
2022/04/04 01:42:27;;;;;;;6.97;3.45;;;3.90;99.90;;;;;;5038934;28;20029;-81
2022/04/04 01:44:52;;;;;;;7.70;3.33;;;3.90;99.90;;;;;;5035170;28;20369;-82
2022/04/04 01:47:18;;;;;;;6.40;2.75;;;3.90;99.90;;;;;;5054122;28;20032;-81
2022/04/04 01:49:44;;;;;;;9.18;2.78;;;3.90;99.90;;;;;;5057383;28;20032;-80
2022/04/04 01:52:09;;;;;;;6.40;3.17;;;3.90;99.90;;;;;;5040131;28;20039;-80
2022/04/04 01:54:35;;;;;;;5.53;2.83;;;3.80;99.90;;;;;;5040657;28;20374;-81
2022/04/04 01:57:01;;;;;;;6.72;3.25;;;3.80;99.90;;;;;;5041836;28;20638;-80
2022/04/04 01:59:26;;;;;;;8.77;3.13;;;3.80;99.90;;;;;;5055325;28;20508;-81
2022/04/04 02:01:52;;;;;;;5.97;2.95;;;3.80;99.90;;;;;;5040318;28;20035;-81
2022/04/04 02:04:18;;;;;;;4.78;3.50;;;3.70;99.90;;;;;;5039898;28;20016;-82
2022/04/04 02:06:44;;;;;;;8.35;3.25;;;3.60;99.90;;;;;;5037651;28;20033;-80
2022/04/04 02:09:10;;;;;;;5.63;3.10;;;3.60;99.90;;;;;;5039726;28;20020;-80
2022/04/04 02:11:36;;;;;;;9.65;3.80;;;3.50;99.90;;;;;;5037360;28;20036;-81
2022/04/04 02:14:03;;;;;;;8.73;3.63;;;3.60;99.90;;;;;;5040588;28;20031;-80
2022/04/04 02:16:29;;;;;;;8.15;3.47;;;3.50;99.90;;;;;;5039313;28;20123;-81
2022/04/04 02:18:55;;;;;;;6.47;3.30;;;3.50;99.90;;;;;;5073426;28;20059;-80
2022/04/04 02:21:20;;;;;;;8.93;3.63;;;3.50;99.90;;;;;;5088644;28;20028;-80
2022/04/04 02:23:46;;;;;;;6.43;3.30;;;3.40;99.90;;;;;;5025301;28;20025;-80
2022/04/04 02:26:12;;;;;;;6.60;3.50;;;3.50;99.90;;;;;;5062015;28;20388;-81
2022/04/04 02:28:41;;;;;;;5.00;3.15;;;3.40;99.90;;;;;;5071292;28;21701;-81
2022/04/04 02:31:07;;;;;;;4.70;3.22;;;3.50;99.90;;;;;;5088820;28;20029;-81
2022/04/04 02:33:33;;;;;;;6.90;3.78;;;3.40;99.90;;;;;;5057800;28;20056;-81
2022/04/04 02:35:59;;;;;;;8.25;3.72;;;3.50;99.90;;;;;;5058297;28;20025;-81
2022/04/04 02:38:26;;;;;;;7.18;3.92;;;3.40;99.90;;;;;;5071628;28;20038;-81
2022/04/04 02:40:54;;;;;;;7.45;3.72;;;3.40;99.90;;;;;;5071707;28;20114;-81
2022/04/04 02:43:20;;;;;;;8.45;3.85;;;3.40;99.90;;;;;;5038050;28;20027;-81
2022/04/04 02:45:46;;;;;;;8.40;3.67;;;3.40;99.90;;;;;;5040779;28;20108;-81
2022/04/04 02:48:15;;;;;;;8.05;3.67;;;3.50;99.90;;;;;;5070996;28;20404;-81
2022/04/04 02:50:41;;;;;;;6.78;3.40;;;3.50;99.90;;;;;;5054841;28;20036;-80
2022/04/04 02:53:07;;;;;;;7.45;4.10;;;3.50;99.90;;;;;;5067449;28;20029;-81
2022/04/04 02:58:17;;;;;;;6.05;3.60;;;3.40;99.90;;;;;;5070809;28;20062;-82
2022/04/04 03:00:43;;;;;;;5.85;3.60;;;3.40;99.90;;;;;;5062955;28;20052;-81
2022/04/04 03:03:09;;;;;;;6.75;3.45;;;3.40;99.90;;;;;;5071377;28;20464;-82
2022/04/04 03:05:36;;;;;;;5.40;3.05;;;3.40;99.90;;;;;;5052576;28;20053;-81
2022/04/04 03:08:02;;;;;;;7.38;3.33;;;3.50;99.90;;;;;;5032659;28;20025;-84
2022/04/04 03:10:29;;;;;;;4.65;3.03;;;3.50;99.90;;;;;;5037555;28;20039;-81
2022/04/04 03:12:55;;;;;;;5.80;3.20;;;3.50;99.90;;;;;;5059420;28;20036;-81
2022/04/04 03:15:23;;;;;;;6.25;3.45;;;3.50;99.90;;;;;;5039273;28;20028;-82
2022/04/04 03:17:51;;;;;;;8.05;3.75;;;3.50;99.90;;;;;;5072924;28;20032;-82
2022/04/04 03:20:18;;;;;;;5.80;3.22;;;3.50;99.90;;;;;;5072611;28;20059;-82
2022/04/04 03:22:47;;;;;;;8.05;3.85;;;3.50;99.90;;;;;;5052135;28;20658;-82
2022/04/04 03:25:14;;;;;;;7.72;3.30;;;3.50;99.90;;;;;;5036957;28;20016;-82
2022/04/04 03:27:41;;;;;;;6.78;3.08;;;3.60;99.90;;;;;;5043324;28;20386;-82
2022/04/04 03:30:10;;;;;;;7.22;3.53;;;3.60;99.90;;;;;;5053826;28;20667;-82
2022/04/04 03:32:36;;;;;;;4.93;2.80;;;3.60;99.90;;;;;;5037077;28;20401;-82
2022/04/04 03:35:04;;;;;;;6.70;3.10;;;3.50;99.90;;;;;;5034755;28;20029;-82
2022/04/04 03:37:31;;;;;;;7.05;3.38;;;3.50;99.90;;;;;;5057125;28;20025;-81
2022/04/04 03:39:57;;;;;;;5.93;3.08;;;3.50;99.90;;;;;;5057390;28;20478;-82
2022/04/04 03:42:23;;;;;;;10.30;4.40;;;3.60;99.90;;;;;;5062722;28;20021;-82
2022/04/04 03:44:49;;;;;;;3.95;3.05;;;3.60;99.90;;;;;;5039142;28;20025;-84
2022/04/04 03:47:15;;;;;;;6.30;3.72;;;3.60;99.90;;;;;;5071886;28;20029;-81
2022/04/04 03:49:40;;;;;;;6.15;2.85;;;3.60;99.90;;;;;;5040331;28;20029;-83
2022/04/04 03:52:06;;;;;;;8.80;3.85;;;3.60;99.90;;;;;;5033543;28;20024;-83
2022/04/04 03:54:33;;;;;;;6.13;3.30;;;3.60;99.90;;;;;;5039641;28;20028;-82
2022/04/04 03:56:59;;;;;;;5.57;3.30;;;3.80;99.90;;;;;;5042894;28;20205;-81
2022/04/04 03:59:25;;;;;;;7.38;3.85;;;3.70;99.90;;;;;;5053170;28;20045;-80
2022/04/04 04:01:51;;;;;;;6.78;4.25;;;3.70;99.90;;;;;;5037258;28;20025;-81
2022/04/04 04:04:16;;;;;;;7.90;3.25;;;3.70;99.90;;;;;;5040378;28;20112;-82
2022/04/04 04:06:42;;;;;;;6.47;3.30;;;3.70;99.90;;;;;;5040243;28;20024;-83
2022/04/04 04:09:08;;;;;;;5.78;3.03;;;3.70;99.90;;;;;;5048141;28;20090;-82
2022/04/04 04:11:34;;;;;;;5.20;2.80;;;3.70;99.90;;;;;;5071764;28;20025;-82
2022/04/04 04:14:00;;;;;;;5.28;2.85;;;3.70;99.90;;;;;;5071119;28;20055;-82
2022/04/04 04:16:27;;;;;;;5.70;3.13;;;3.70;99.90;;;;;;5051939;28;20032;-81
2022/04/04 04:18:53;;;;;;;7.13;3.63;;;3.80;99.90;;;;;;5036174;28;20028;-81
2022/04/04 04:21:20;;;;;;;6.20;3.05;;;3.80;99.90;;;;;;5050745;28;20055;-80
2022/04/04 04:23:47;;;;;;;6.78;3.30;;;3.90;99.90;;;;;;5073777;28;20020;-80
2022/04/04 04:26:13;;;;;;;6.63;3.28;;;3.80;99.90;;;;;;5070270;28;20047;-80
2022/04/04 04:28:40;;;;;;;6.00;3.05;;;3.80;99.90;;;;;;5068907;28;20029;-81
2022/04/04 04:31:06;;;;;;;7.53;3.08;;;3.90;99.90;;;;;;5064164;28;20012;-80
2022/04/04 04:33:32;;;;;;;9.40;3.60;;;3.80;99.90;;;;;;5070147;28;20028;-80
2022/04/04 04:36:00;;;;;;;5.30;2.95;;;3.90;99.90;;;;;;5039510;28;20021;-79
2022/04/04 04:38:26;;;;;;;6.43;3.10;;;3.90;99.90;;;;;;5049880;28;20112;-79
2022/04/04 04:40:52;;;;;;;9.80;3.30;;;3.90;99.90;;;;;;5059145;28;20036;-80
2022/04/04 04:43:19;;;;;;;6.57;3.50;;;3.90;99.90;;;;;;5073420;28;20078;-81
2022/04/04 04:45:45;;;;;;;5.57;3.45;;;3.90;99.90;;;;;;5060041;28;20095;-82
2022/04/04 04:48:10;;;;;;;6.15;3.08;;;3.90;99.90;;;;;;5047521;28;20043;-80
2022/04/04 04:50:39;;;;;;;5.55;3.45;;;3.90;99.90;;;;;;5044263;28;20024;-83
2022/04/04 04:53:05;;;;;;;4.65;3.22;;;3.90;99.90;;;;;;5043601;28;20115;-83
2022/04/04 04:55:31;;;;;;;6.60;3.50;;;4.00;99.90;;;;;;5044109;28;20025;-82
2022/04/04 04:57:57;;;;;;;6.45;3.47;;;4.10;99.90;;;;;;5064223;28;20029;-81
2022/04/04 05:00:26;;;;;;;6.97;3.40;;;4.10;99.90;;;;;;5043219;28;20035;-81
2022/04/04 05:05:37;;;;;;;5.40;3.33;;;4.10;99.90;;;;;;5075850;28;20517;-83
2022/04/04 05:08:04;;;;;;;9.82;3.90;;;4.10;99.90;;;;;;5045983;28;20082;-82
2022/04/04 05:10:29;;;;;;;7.28;4.00;;;4.00;99.90;;;;;;5067965;28;21943;-79
2022/04/04 05:12:56;;;;;;;7.93;4.22;;;4.00;99.90;;;;;;5039314;28;20024;-82
2022/04/04 05:15:23;;;;;;;6.70;4.05;;;4.00;99.90;;;;;;5058072;28;20039;-80
2022/04/04 05:17:50;;;;;;;7.95;4.28;;;4.10;99.90;;;;;;5043618;28;20033;-80
2022/04/04 05:20:16;;;;;;;9.02;4.80;;;4.20;99.90;;;;;;5065504;28;20032;-82
2022/04/04 05:22:42;;;;;;;9.77;4.75;;;4.10;99.90;;;;;;5064280;28;20024;-81
2022/04/04 05:25:08;;;;;;;8.43;5.03;;;4.20;99.90;;;;;;5057629;28;20107;-81
2022/04/04 05:27:36;;;;;;;8.52;5.03;;;4.20;99.90;;;;;;5090157;28;20044;-81
2022/04/04 05:30:02;;;;;;;9.00;5.72;;;4.20;99.90;;;;;;5054222;28;20089;-81
2022/04/04 05:32:29;;;;;;;8.15;5.13;;;4.30;99.90;;;;;;5040030;28;20047;-81
2022/04/04 05:34:55;;;;;;;12.77;5.90;;;4.30;99.90;;;;;;5045427;28;20036;-82
2022/04/04 05:37:20;;;;;;;9.57;5.80;;;4.30;99.90;;;;;;5086098;28;20059;-82
2022/04/04 05:39:46;;;;;;;9.18;5.07;;;4.40;99.90;;;;;;5060210;28;20028;-81
2022/04/04 05:42:11;;;;;;;14.45;7.00;;;4.40;99.90;;;;;;5038036;28;20031;-80
2022/04/04 05:44:37;;;;;;;14.82;6.03;;;4.40;99.90;;;;;;5065845;28;20512;-83
2022/04/04 05:47:04;;;;;;;8.88;5.43;;;4.50;99.90;;;;;;5035734;28;20025;-80
2022/04/04 05:49:30;;;;;;;10.68;5.88;;;4.50;99.90;;;;;;5055340;28;20025;-82
2022/04/04 05:51:55;;;;;;;18.02;8.80;;;4.60;99.90;;;;;;5046447;28;20488;-81
2022/04/04 05:54:21;;;;;;;11.45;6.70;;;4.60;99.90;;;;;;5044835;28;20476;-82
2022/04/04 05:56:47;;;;;;;11.27;6.40;;;4.50;99.90;;;;;;5047067;28;20032;-82
2022/04/04 05:59:13;;;;;;;12.70;6.90;;;4.50;99.90;;;;;;5082564;28;20043;-81
2022/04/04 06:01:40;;;;;;;12.40;7.78;;;4.50;99.90;;;;;;5046657;28;20036;-81
2022/04/04 06:04:06;;;;;;;11.02;6.30;;;4.50;99.90;;;;;;5078116;28;20585;-84
2022/04/04 06:06:32;;;;;;;10.50;7.03;;;4.50;99.90;;;;;;5048373;28;20030;-82
2022/04/04 06:08:58;;;;;;;12.32;8.02;;;4.60;99.90;;;;;;5059316;28;20052;-83
2022/04/04 06:11:24;;;;;;;14.38;7.88;;;4.60;99.90;;;;;;5047017;28;20052;-82
2022/04/04 06:13:50;;;;;;;12.55;8.52;;;4.60;99.90;;;;;;5044566;28;20032;-81
2022/04/04 06:16:15;;;;;;;14.65;9.30;;;4.60;99.90;;;;;;5036755;28;20043;-82
2022/04/04 06:18:43;;;;;;;14.00;8.52;;;4.60;99.90;;;;;;5070221;28;20033;-82
2022/04/04 06:21:10;;;;;;;12.85;8.93;;;4.60;99.90;;;;;;5039563;28;20076;-81
2022/04/04 06:23:36;;;;;;;14.55;8.80;;;4.50;99.90;;;;;;5039070;28;20384;-82
2022/04/04 06:26:05;;;;;;;16.63;9.43;;;4.50;99.90;;;;;;5039984;28;20055;-81
2022/04/04 06:28:31;;;;;;;14.73;9.32;;;4.50;99.90;;;;;;5038696;28;20044;-81
2022/04/04 06:31:01;;;;;;;16.50;9.70;;;4.50;99.90;;;;;;5039736;28;20033;-80
2022/04/04 06:33:27;;;;;;;15.40;9.50;;;4.60;99.90;;;;;;5054044;28;20027;-80
2022/04/04 06:35:54;;;;;;;17.63;10.43;;;4.50;99.90;;;;;;5031378;28;20092;-81
2022/04/04 06:38:19;;;;;;;13.85;9.63;;;4.50;99.90;;;;;;5047684;28;20024;-81
2022/04/04 06:40:46;;;;;;;16.25;10.57;;;4.50;99.90;;;;;;5039231;28;20017;-82
2022/04/04 06:43:11;;;;;;;15.23;10.50;;;4.50;99.90;;;;;;5060280;28;20025;-82
2022/04/04 06:45:38;;;;;;;15.70;10.35;;;4.60;99.90;;;;;;5043073;28;20091;-81
2022/04/04 06:48:06;;;;;;;18.60;10.88;;;4.50;99.90;;;;;;5067727;28;20116;-80
2022/04/04 06:50:32;;;;;;;18.55;10.75;;;4.50;99.90;;;;;;5039725;28;20021;-81
2022/04/04 06:52:58;;;;;;;17.00;10.43;;;4.50;99.90;;;;;;5039035;28;20046;-81
2022/04/04 06:55:24;;;;;;;17.73;10.20;;;4.40;99.90;;;;;;5054075;28;20489;-81
2022/04/04 06:57:50;;;;;;;19.50;10.93;;;4.40;99.90;;;;;;5082199;28;20070;-81
2022/04/04 07:00:17;;;;;;;15.80;10.90;;;4.40;99.90;;;;;;5080566;28;20032;-84
2022/04/04 07:02:44;;;;;;;17.15;10.75;;;4.40;99.90;;;;;;5052265;28;20058;-81
2022/04/04 07:05:10;;;;;;;17.27;11.65;;;4.40;99.90;;;;;;5054559;28;20515;-80
2022/04/04 07:07:36;;;;;;;16.52;10.57;;;4.40;99.90;;;;;;5075126;28;20028;-82
2022/04/04 07:10:03;;;;;;;22.08;11.63;;;4.40;99.90;;;;;;5057498;28;20021;-82
2022/04/04 07:12:29;;;;;;;15.98;11.23;;;4.30;99.90;;;;;;5039759;28;20129;-81
2022/04/04 07:14:55;;;;;;;16.92;10.93;;;4.30;99.90;;;;;;5029411;28;20320;-81
2022/04/04 07:17:21;;;;;;;16.02;10.88;;;4.30;99.90;;;;;;5062705;28;20043;-81
2022/04/04 07:19:48;;;;;;;21.92;11.75;;;4.30;99.90;;;;;;5036018;28;20094;-81
2022/04/04 07:22:16;;;;;;;21.73;12.00;;;4.30;99.90;;;;;;5039822;28;20492;-82
2022/04/04 07:24:42;;;;;;;19.10;12.02;;;4.30;99.90;;;;;;5061634;28;20033;-81
2022/04/04 07:27:08;;;;;;;18.85;12.35;;;4.30;99.90;;;;;;5036939;28;20029;-81
2022/04/04 07:29:33;;;;;;;17.35;11.40;;;4.30;99.90;;;;;;5041337;28;20021;-81
2022/04/04 07:31:59;;;;;;;21.35;13.10;;;4.20;99.90;;;;;;5055925;28;20043;-81
2022/04/04 07:34:25;;;;;;;21.90;12.68;;;4.20;99.90;;;;;;5047545;28;20028;-82
2022/04/04 07:36:51;;;;;;;18.85;11.18;;;4.30;99.90;;;;;;5047646;28;20032;-80
2022/04/04 07:39:16;;;;;;;16.42;11.15;;;4.30;99.90;;;;;;5048761;28;20080;-80
2022/04/04 07:41:42;;;;;;;18.13;12.00;;;4.30;99.90;;;;;;5051971;28;20036;-81
2022/04/04 07:44:09;;;;;;;18.70;11.93;;;4.30;99.90;;;;;;5097356;28;20189;-81
2022/04/04 07:46:34;;;;;;;19.02;11.63;;;4.20;99.90;;;;;;5058281;28;20025;-81
2022/04/04 07:49:00;;;;;;;16.85;11.02;;;4.30;99.90;;;;;;5057895;28;20021;-81
2022/04/04 07:51:26;;;;;;;15.02;11.27;;;4.30;99.90;;;;;;5052712;28;20032;-81
2022/04/04 07:53:52;;;;;;;15.40;11.13;;;4.20;99.90;;;;;;5075640;28;20044;-80
2022/04/04 07:56:19;;;;;;;16.17;11.30;;;4.20;99.90;;;;;;5057611;28;20013;-80
2022/04/04 07:58:45;;;;;;;20.13;12.25;;;4.30;99.90;;;;;;5090751;28;20048;-81
2022/04/04 08:01:18;;;;;;;15.85;10.90;;;4.20;99.90;;;;;;5066711;28;20005;-82
2022/04/04 08:03:44;;;;;;;18.92;11.15;;;4.30;99.90;;;;;;5077142;28;20028;-82
2022/04/04 08:06:10;;;;;;;21.95;12.20;;;4.20;99.90;;;;;;5059914;28;20044;-82
2022/04/04 08:08:36;;;;;;;16.88;12.27;;;4.20;99.90;;;;;;5060387;28;20084;-83
2022/04/04 08:11:03;;;;;;;20.33;12.45;;;4.20;99.90;;;;;;5096107;28;20012;-84
2022/04/04 08:13:30;;;;;;;18.27;12.20;;;4.20;99.90;;;;;;5051955;28;20013;-81
2022/04/04 08:15:56;;;;;;;17.77;13.10;;;4.20;99.90;;;;;;5064005;28;20040;-80
2022/04/04 08:18:23;;;;;;;20.02;13.77;;;4.10;99.90;;;;;;5062076;28;20035;-82
2022/04/04 08:20:49;;;;;;;16.20;12.23;;;4.20;99.90;;;;;;5074487;28;20146;-80
2022/04/04 08:23:16;;;;;;;18.95;11.82;;;4.20;99.90;;;;;;5063134;28;20051;-83
2022/04/04 08:25:41;;;;;;;18.63;13.27;;;4.20;99.90;;;;;;5062851;28;20100;-81
2022/04/04 08:28:07;;;;;;;17.38;12.20;;;4.10;99.90;;;;;;5056705;28;20008;-81
2022/04/04 08:30:33;;;;;;;17.27;12.52;;;4.20;99.90;;;;;;5060166;28;20052;-81
2022/04/04 08:32:59;;;;;;;16.33;13.18;;;4.10;99.90;;;;;;5076513;28;20028;-82
2022/04/04 08:35:25;;;;;;;18.83;12.40;;;4.20;99.90;;;;;;5076879;28;20054;-80
2022/04/04 08:37:51;;;;;;;16.25;12.00;;;4.20;99.90;;;;;;5067629;28;20044;-81
2022/04/04 08:40:18;;;;;;;17.23;12.40;;;4.20;99.90;;;;;;5066748;28;20032;-81
2022/04/04 08:42:45;;;;;;;17.92;13.45;;;4.20;99.90;;;;;;5067317;28;20048;-81
2022/04/04 08:45:11;;;;;;;17.50;12.57;;;4.10;99.90;;;;;;5068198;28;20033;-82
2022/04/04 08:47:38;;;;;;;17.17;11.60;;;4.20;99.90;;;;;;5067890;28;20020;-81
2022/04/04 08:50:04;;;;;;;16.05;11.80;;;4.20;99.90;;;;;;5068720;28;20084;-82
2022/04/04 08:52:30;;;;;;;18.60;11.90;;;4.20;99.90;;;;;;5040419;28;20318;-81
2022/04/04 08:54:56;;;;;;;18.02;12.43;;;4.10;99.90;;;;;;5044028;28;20024;-81
2022/04/04 08:57:22;;;;;;;15.98;12.60;;;4.20;99.90;;;;;;5040886;28;20029;-81
2022/04/04 08:59:47;;;;;;;17.30;11.52;;;4.20;99.90;;;;;;5066929;28;20036;-82
2022/04/04 09:02:14;;;;;;;17.33;11.40;;;4.20;99.90;;;;;;5054520;28;20048;-81
2022/04/04 09:04:40;;;;;;;19.50;11.68;;;4.20;99.90;;;;;;5065543;28;20033;-81
2022/04/04 09:07:11;;;;;;;15.77;10.95;;;4.20;99.90;;;;;;5075409;28;20025;-82
2022/04/04 09:09:41;;;;;;;15.98;10.05;;;4.30;99.90;;;;;;5068658;28;20043;-82
2022/04/04 09:12:09;;;;;;;14.90;11.03;;;4.30;99.90;;;;;;5066988;28;20021;-81
2022/04/04 09:14:56;;;;;;;17.60;10.27;;;4.40;99.90;;;;;;5046979;28;20540;-82
2022/04/04 09:17:24;;;;;;;13.23;9.90;;;4.30;99.90;;;;;;5063816;28;20037;-81
2022/04/04 09:19:51;;;;;;;15.10;10.70;;;4.30;99.90;;;;;;5075867;28;20035;-80
2022/04/04 09:22:19;;;;;;;14.75;10.18;;;4.30;99.90;;;;;;5083658;28;20435;-81
2022/04/04 09:24:55;;;;;;;17.38;10.88;;;4.30;99.90;;;;;;5077468;28;20083;-81
2022/04/04 09:27:36;;;;;;;11.80;9.23;;;4.30;99.90;;;;;;5070167;28;20017;-81
2022/04/04 09:30:05;;;;;;;14.52;10.07;;;4.40;99.90;;;;;;5075955;28;20103;-80
2022/04/04 09:32:39;;;;;;;16.80;10.73;;;4.40;99.90;;;;;;5071703;28;20032;-81
2022/04/04 09:35:13;;;;;;;15.63;10.18;;;4.40;99.90;;;;;;5041726;28;20055;-81
2022/04/04 09:37:41;;;;;;;15.73;9.75;;;4.50;99.90;;;;;;5072340;28;20024;-81
2022/04/04 09:40:16;;;;;;;15.40;10.25;;;4.40;99.90;;;;;;5058898;28;20028;-81
2022/04/04 09:42:51;;;;;;;16.40;10.05;;;4.40;99.90;;;;;;5053667;28;20025;-79
2022/04/04 09:45:18;;;;;;;13.05;8.90;;;4.50;99.90;;;;;;5053342;28;20025;-83
2022/04/04 09:47:57;;;;;;;14.02;9.80;;;4.50;99.90;;;;;;5046067;28;20059;-80
2022/04/04 09:50:34;;;;;;;11.88;9.00;;;4.50;99.90;;;;;;5053267;28;20107;-80
2022/04/04 09:53:00;;;;;;;14.20;9.40;;;4.50;99.90;;;;;;5071702;28;20032;-81
2022/04/04 09:55:32;;;;;;;13.48;9.90;;;4.50;99.90;;;;;;5059564;28;20104;-79
2022/04/04 09:58:04;;;;;;;13.60;9.65;;;4.40;99.90;;;;;;5074753;28;20033;-81
2022/04/04 10:00:30;;;;;;;14.70;10.55;;;4.40;99.90;;;;;;5072546;28;20027;-81
2022/04/04 10:02:57;;;;;;;15.55;10.25;;;4.30;99.90;;;;;;5080055;28;20025;-81
2022/04/04 10:05:26;;;;;;;13.82;9.52;;;4.40;99.90;;;;;;5049459;28;20029;-80
2022/04/04 10:07:55;;;;;;;13.90;10.25;;;4.40;99.90;;;;;;5085147;28;20076;-79
2022/04/04 10:10:26;;;;;;;14.00;9.77;;;4.40;99.90;;;;;;5047353;28;21395;-80
2022/04/04 10:12:53;;;;;;;16.58;10.13;;;4.40;99.90;;;;;;5065722;28;20032;-80
2022/04/04 10:15:20;;;;;;;14.27;10.02;;;4.40;99.90;;;;;;5082215;28;20024;-80
2022/04/04 10:17:46;;;;;;;16.52;10.07;;;4.50;99.90;;;;;;5054037;28;20093;-79
2022/04/04 10:20:14;;;;;;;13.32;9.23;;;4.40;99.90;;;;;;5072598;28;20017;-79
2022/04/04 10:22:44;;;;;;;16.08;10.10;;;4.40;99.90;;;;;;5056722;28;20036;-79
2022/04/04 10:25:13;;;;;;;14.80;9.98;;;4.40;99.90;;;;;;5055960;28;20020;-79
2022/04/04 10:27:40;;;;;;;15.60;9.63;;;4.30;99.90;;;;;;5063429;28;20561;-79
2022/04/04 10:30:08;;;;;;;15.27;9.93;;;4.40;99.90;;;;;;5049367;28;20084;-79
2022/04/04 10:32:34;;;;;;;14.65;10.27;;;4.40;99.90;;;;;;5044770;28;20060;-79
2022/04/04 10:35:12;;;;;;;19.15;10.13;;;4.40;99.90;;;;;;5060357;28;20032;-78
2022/04/04 10:37:45;;;;;;;14.52;9.95;;;4.50;99.90;;;;;;5101591;28;20033;-81
2022/04/04 10:40:28;;;;;;;13.50;9.50;;;4.40;99.90;;;;;;5076321;28;20066;-77
2022/04/04 10:43:14;;;;;;;13.82;10.05;;;4.40;99.90;;;;;;5051652;28;20028;-78
2022/04/04 10:45:58;;;;;;;13.73;9.82;;;4.50;99.90;;;;;;5095369;28;20029;-80
2022/04/04 10:48:35;;;;;;;15.95;10.32;;;4.40;99.90;;;;;;5062343;28;20029;-79
2022/04/04 10:51:20;;;;;;;15.25;10.30;;;4.50;99.90;;;;;;5073902;28;20035;-79
2022/04/04 10:53:57;;;;;;;13.13;9.68;;;4.50;99.90;;;;;;5041879;28;20052;-77
2022/04/04 10:56:37;;;;;;;13.93;10.13;;;4.50;99.90;;;;;;5040488;28;20017;-77
2022/04/04 10:59:15;;;;;;;14.63;10.52;;;4.50;99.90;;;;;;5046734;28;20029;-75
2022/04/04 11:01:46;;;;;;;15.55;10.55;;;4.60;99.90;;;;;;5057547;28;20070;-77
2022/04/04 11:04:30;;;;;;;12.93;9.60;;;4.60;99.90;;;;;;5055888;28;20465;-75
2022/04/04 11:09:55;;;;;;;14.68;10.52;;;4.60;99.90;;;;;;5053614;28;20477;-80
2022/04/04 11:12:27;;;;;;;17.77;10.40;;;4.60;99.90;;;;;;5076399;28;20032;-80
2022/04/04 11:15:04;;;;;;;13.77;9.85;;;4.70;99.90;;;;;;5062352;28;20059;-79
2022/04/04 11:17:32;;;;;;;13.75;10.02;;;4.70;99.90;;;;;;5074710;28;20068;-78
2022/04/04 11:20:13;;;;;;;14.73;10.85;;;4.60;99.90;;;;;;5055732;28;20050;-79
2022/04/04 11:22:44;;;;;;;13.75;10.27;;;4.60;99.90;;;;;;5078898;28;20032;-79
2022/04/04 11:25:17;;;;;;;;;;;4.60;99.90;;;;;;5045826;28;20029;-79
2022/04/04 11:27:48;;;;;;;14.73;10.68;;;4.70;99.90;;;;;;5078611;28;20005;-78
2022/04/04 11:30:18;;;;;;;;;;;4.60;99.90;;;;;;5060515;28;20035;-79
2022/04/04 11:32:46;;;;;;;14.68;10.52;;;4.60;99.90;;;;;;5072266;28;19915;-78
2022/04/04 11:35:27;;;;;;;14.02;10.10;;;4.70;99.90;;;;;;5054619;28;20028;-79
2022/04/04 11:37:57;;;;;;;;;;;4.60;99.90;;;;;;5054884;28;20056;-78
2022/04/04 11:40:29;;;;;;;15.27;10.55;;;4.70;99.90;;;;;;5053757;28;19936;-78
2022/04/04 11:42:57;;;;;;;13.52;10.82;;;4.70;99.90;;;;;;5072537;28;20032;-77
2022/04/04 11:45:28;;;;;;;16.02;10.68;;;4.70;99.90;;;;;;5074281;28;20078;-78
2022/04/04 11:48:01;;;;;;;102.75;48.03;;;4.70;99.90;;;;;;5059511;28;20040;-78
2022/04/04 11:50:29;;;;;;;35.53;19.67;;;4.70;99.90;;;;;;5068670;28;20036;-78
2022/04/04 11:52:57;;;;;;;64.40;36.75;;;4.70;99.90;;;;;;5048949;28;20036;-78
2022/04/04 11:55:25;;;;;;;14.10;10.95;;;4.80;99.90;;;;;;5056085;28;20055;-77
2022/04/04 11:57:57;;;;;;;13.50;10.45;;;4.70;99.90;;;;;;5050625;28;20048;-79
2022/04/04 12:00:31;;;;;;;14.00;10.73;;;4.70;99.90;;;;;;5056435;28;20023;-78
2022/04/04 12:03:11;;;;;;;14.00;11.00;;;4.80;99.90;;;;;;5050786;28;20032;-78
2022/04/04 12:05:39;;;;;;;16.48;11.65;;;4.80;99.90;;;;;;5049047;28;20028;-78
2022/04/04 12:08:06;;;;;;;13.57;10.85;;;4.90;99.90;;;;;;5064455;28;20135;-79
2022/04/04 12:10:35;;;;;;;16.48;11.82;;;4.90;99.90;;;;;;5028508;28;20560;-77
2022/04/04 12:13:08;;;;;;;15.70;11.30;;;4.90;99.90;;;;;;5056001;28;20084;-78
2022/04/04 12:15:36;;;;;;;14.57;11.45;;;4.90;99.90;;;;;;5051963;28;20036;-76
2022/04/04 12:18:04;;;;;;;14.30;11.90;;;5.00;99.90;;;;;;5045401;28;20033;-77
2022/04/04 12:20:41;;;;;;;14.10;11.48;;;4.90;99.90;;;;;;5050160;28;20035;-77
2022/04/04 12:26:00;;;;;;;15.13;11.02;;;5.00;99.90;;;;;;5069564;28;20020;-76
2022/04/04 12:28:29;;;;;;;14.65;11.45;;;5.10;99.90;;;;;;5053600;28;20033;-76
2022/04/04 12:30:56;;;;;;;15.57;12.15;;;5.00;99.90;;;;;;5054318;28;20131;-77
2022/04/04 12:33:32;;;;;;;15.13;11.65;;;5.00;99.90;;;;;;5060774;28;20119;-77
2022/04/04 12:35:59;;;;;;;16.05;11.70;;;5.10;99.90;;;;;;5055424;28;20028;-77
2022/04/04 12:38:27;;;;;;;15.40;12.07;;;5.10;99.90;;;;;;5050410;28;20033;-77
2022/04/04 12:41:16;;;;;;;13.77;11.30;;;5.10;99.90;;;;;;5070568;28;20396;-77
2022/04/04 12:43:58;;;;;;;15.60;11.10;;;5.20;99.90;;;;;;5051712;28;20029;-78
2022/04/04 12:46:34;;;;;;;14.70;11.50;;;5.20;99.90;;;;;;5066055;28;20087;-77
2022/04/04 12:49:19;;;;;;;16.02;12.20;;;5.20;99.90;;;;;;5045654;28;20532;-77
2022/04/04 12:52:06;;;;;;;14.60;11.57;;;5.10;99.90;;;;;;5039314;28;20280;-77
2022/04/04 12:54:35;;;;;;;14.88;11.38;;;5.30;99.90;;;;;;5032628;28;20071;-77
2022/04/04 12:57:03;;;;;;;12.70;10.50;;;5.30;99.90;;;;;;5045959;28;20395;-76
2022/04/04 12:59:30;;;;;;;15.63;11.35;;;5.30;99.90;;;;;;5063160;28;20024;-77
2022/04/04 13:02:06;;;;;;;17.10;11.40;;;5.30;99.90;;;;;;5056767;28;20040;-77
2022/04/04 13:04:33;;;;;;;13.95;11.23;;;5.30;99.90;;;;;;5089235;28;20057;-77